Ana Sayfa
METAR-TAF:

METAR-TAF

Havaalanları :

İzmir, Türkiye

Çiğli Hava Üssü

Enlem: 38-30N, Boylam: 027-01E, yükseklik: 5 m

Güncel hava durumu gözlemi

Rapor saat 06:12 UTC de 8 saat ve 30 dakika önce yapıldı.
Rüzgar kuzeydoğudan 1 kt
Sıcaklık 10°C
Nem 93%
Basınç 1011 hPa
Görüş mesafesi: 6000 m
4000 ft yükseklikte az bulutlu
20000 ft yükseklikte parçalı bulutlu

METAR: LTBL 230612Z 04001KT 6000 FEW040 SCT200 10/09 Q1011 NOSIG RMK RWY17 06003KT 030V090

Saat: 17:42 (14:42 UTC)

Tahmin

Rapor saat 13:40 UTC de 1 saat ve 2 dakika önce yapıldı.
Ayın 23'si saat 15 UTC'den ayın 23'si saat 24 UTC'ye kadar geçerli Tahmin
Rüzgar kuzey/kuzeybatıdan 8 kt
Görüş mesafesi 10 km veya daha fazla
4000 ft yükseklikte parçalı bulutlu
10000 ft yükseklikte parçalı çok bulutlu

TAF: LTBL 231340Z 2315/2324 33008KT 9999 SCT040 BKN100

4.000'den fazla havaalanı için hava durumu gözlemleri ve tahminleri (METAR ve TAF raporları).

Kullanılabilir istasyonlar harita üzerinde sarı ve kırmızı noktalarla gösterilir.

İstasyonun adını görmek için fareyi noktanın üzerinde gezdirin.

Sonrasında hava gözlem ve tahminlerini görmek için tıklayın.

Haritayı değiştirmek için: yaklaştırmak için siyah artı işaretli yeşil düğmeye ve uzaklaştırmak için de eksi işaretli düğmeye hızla tıklayın; bitişik haritalar için yeşil okları kullanın.


METAR-TAF: